sensor_id;sensor_type;location;lat;lon;timestamp;pressure;altitude;pressure_sealevel;temperature;humidity
22775;BME280;11554;51.106;3.684;2023-10-31T00:00:00;99764.98;;;9.76;100.0
22775;BME280;11554;51.106;3.684;2023-10-31T00:05:00;99766.53;;;9.77;100.0
22775;BME280;11554;51.106;3.684;2023-10-31T00:10:00;99770.42;;;9.77;100.0
22775;BME280;11554;51.106;3.684;2023-10-31T00:15:00;99775.84000000001;;;9.79;100.0
22775;BME280;11554;51.106;3.684;2023-10-31T00:20:00;99781.12999999999;;;9.80;100.0
22775;BME280;11554;51.106;3.684;2023-10-31T00:25:00;99792.38;;;9.80;100.0
22775;BME280;11554;51.106;3.684;2023-10-31T00:30:00;99801.44;;;9.80;100.0
22775;BME280;11554;51.106;3.684;2023-10-31T00:35:00;99805.66;;;9.81;100.0
22775;BME280;11554;51.106;3.684;2023-10-31T00:40:00;99804.52;;;9.80;100.0
22775;BME280;11554;51.106;3.684;2023-10-31T00:45:00;99809.56999999999;;;9.80;100.0
22775;BME280;11554;51.106;3.684;2023-10-31T00:50:00;99819.92;;;9.78;100.0
22775;BME280;11554;51.106;3.684;2023-10-31T00:55:00;99822.64;;;9.76;100.0
22775;BME280;11554;51.106;3.684;2023-10-31T01:00:00;99832.25;;;9.75;100.0
22775;BME280;11554;51.106;3.684;2023-10-31T01:05:00;99832.4;;;9.71;100.0
22775;BME280;11554;51.106;3.684;2023-10-31T01:10:00;99839.21;;;9.69;100.0
22775;BME280;11554;51.106;3.684;2023-10-31T01:15:00;99842.94;;;9.65;100.0
22775;BME280;11554;51.106;3.684;2023-10-31T01:20:00;99850.72;;;9.63;100.0
22775;BME280;11554;51.106;3.684;2023-10-31T01:25:00;99857.87;;;9.61;100.0
22775;BME280;11554;51.106;3.684;2023-10-31T01:30:00;99856.76;;;9.60;100.0
22775;BME280;11554;51.106;3.684;2023-10-31T01:35:00;99859.55;;;9.59;100.0
22775;BME280;11554;51.106;3.684;2023-10-31T01:40:00;99866.71;;;9.58;100.0
22775;BME280;11554;51.106;3.684;2023-10-31T01:45:00;99871.86;;;9.57;100.0
22775;BME280;11554;51.106;3.684;2023-10-31T01:50:00;99872.63;;;9.56;100.0
22775;BME280;11554;51.106;3.684;2023-10-31T01:55:00;99864.22;;;9.57;100.0
22775;BME280;11554;51.106;3.684;2023-10-31T02:00:00;99860.42;;;9.55;100.0
22775;BME280;11554;51.106;3.684;2023-10-31T02:05:00;99860.86;;;9.47;100.0
22775;BME280;11554;51.106;3.684;2023-10-31T02:10:00;99860.38;;;9.34;100.0
22775;BME280;11554;51.106;3.684;2023-10-31T02:15:00;99858.06999999999;;;9.20;100.0
22775;BME280;11554;51.106;3.684;2023-10-31T02:20:00;99855.28;;;9.06;100.0
22775;BME280;11554;51.106;3.684;2023-10-31T02:25:00;99860.83;;;8.91;100.0
22775;BME280;11554;51.106;3.684;2023-10-31T02:30:00;99855.84;;;8.80;100.0
22775;BME280;11554;51.106;3.684;2023-10-31T02:35:00;99866.33;;;8.71;100.0
22775;BME280;11554;51.106;3.684;2023-10-31T02:40:00;99872.91;;;8.61;100.0
22775;BME280;11554;51.106;3.684;2023-10-31T02:45:00;99873.06999999999;;;8.53;100.0
22775;BME280;11554;51.106;3.684;2023-10-31T02:50:00;99878.11;;;8.41;100.0
22775;BME280;11554;51.106;3.684;2023-10-31T02:55:00;99888.22;;;8.32;100.0
22775;BME280;11554;51.106;3.684;2023-10-31T03:00:00;99895.53;;;8.25;100.0
22775;BME280;11554;51.106;3.684;2023-10-31T03:05:00;99895.43;;;8.19;100.0
22775;BME280;11554;51.106;3.684;2023-10-31T03:10:00;99897.46;;;8.14;100.0
22775;BME280;11554;51.106;3.684;2023-10-31T03:15:00;99907.96;;;8.13;100.0
22775;BME280;11554;51.106;3.684;2023-10-31T03:20:00;99913.05;;;8.08;100.0
22775;BME280;11554;51.106;3.684;2023-10-31T03:25:00;99913.98000000001;;;8.04;100.0
22775;BME280;11554;51.106;3.684;2023-10-31T03:30:00;99924.85;;;7.98;100.0
22775;BME280;11554;51.106;3.684;2023-10-31T03:35:00;99928.94;;;7.94;100.0
22775;BME280;11554;51.106;3.684;2023-10-31T03:40:00;99939.61;;;7.85;100.0
22775;BME280;11554;51.106;3.684;2023-10-31T03:45:00;99948.99;;;7.85;100.0
22775;BME280;11554;51.106;3.684;2023-10-31T03:50:00;99961.0;;;7.92;100.0
22775;BME280;11554;51.106;3.684;2023-10-31T03:55:00;99955.74;;;7.99;100.0
22775;BME280;11554;51.106;3.684;2023-10-31T04:00:00;99957.14;;;7.96;100.0
22775;BME280;11554;51.106;3.684;2023-10-31T04:05:00;99966.72;;;7.92;100.0
22775;BME280;11554;51.106;3.684;2023-10-31T04:10:00;99970.95000000001;;;7.96;100.0
22775;BME280;11554;51.106;3.684;2023-10-31T04:15:00;99972.55;;;7.93;100.0
22775;BME280;11554;51.106;3.684;2023-10-31T04:20:00;99980.48999999999;;;7.84;100.0
22775;BME280;11554;51.106;3.684;2023-10-31T04:25:00;99986.37999999999;;;7.79;100.0
22775;BME280;11554;51.106;3.684;2023-10-31T04:30:00;99988.55;;;7.82;100.0
22775;BME280;11554;51.106;3.684;2023-10-31T04:35:00;99998.87999999999;;;7.85;100.0
22775;BME280;11554;51.106;3.684;2023-10-31T04:40:00;100001.54;;;7.92;100.0
22775;BME280;11554;51.106;3.684;2023-10-31T04:45:00;100002.67;;;7.94;100.0
22775;BME280;11554;51.106;3.684;2023-10-31T04:50:00;100019.87000000001;;;7.87;100.0
22775;BME280;11554;51.106;3.684;2023-10-31T04:55:00;100026.37;;;7.80;100.0
22775;BME280;11554;51.106;3.684;2023-10-31T05:00:00;100022.55;;;7.69;100.0
22775;BME280;11554;51.106;3.684;2023-10-31T05:05:00;100028.85;;;7.63;100.0
22775;BME280;11554;51.106;3.684;2023-10-31T05:10:00;100029.57;;;7.57;100.0
22775;BME280;11554;51.106;3.684;2023-10-31T05:15:00;100032.1;;;7.51;100.0
22775;BME280;11554;51.106;3.684;2023-10-31T05:20:00;100038.42;;;7.45;100.0
22775;BME280;11554;51.106;3.684;2023-10-31T05:25:00;100041.83;;;7.45;100.0
22775;BME280;11554;51.106;3.684;2023-10-31T05:30:00;100043.91;;;7.44;100.0
22775;BME280;11554;51.106;3.684;2023-10-31T05:35:00;100042.46;;;7.49;100.0
22775;BME280;11554;51.106;3.684;2023-10-31T05:40:00;100044.64;;;7.60;100.0
22775;BME280;11554;51.106;3.684;2023-10-31T05:45:00;100052.20000000001;;;7.72;100.0
22775;BME280;11554;51.106;3.684;2023-10-31T05:50:00;100055.22;;;7.82;100.0
22775;BME280;11554;51.106;3.684;2023-10-31T05:55:00;100061.21;;;7.92;100.0
22775;BME280;11554;51.106;3.684;2023-10-31T06:00:00;100065.81;;;8.00;100.0
22775;BME280;11554;51.106;3.684;2023-10-31T06:05:00;100062.95;;;8.07;100.0
22775;BME280;11554;51.106;3.684;2023-10-31T06:10:00;100059.34;;;8.14;100.0
22775;BME280;11554;51.106;3.684;2023-10-31T06:15:01;100055.14;;;8.21;100.0
22775;BME280;11554;51.106;3.684;2023-10-31T06:20:01;100056.54;;;8.26;100.0
22775;BME280;11554;51.106;3.684;2023-10-31T06:25:00;100065.3;;;8.27;100.0
22775;BME280;11554;51.106;3.684;2023-10-31T06:30:00;100080.8;;;8.33;100.0
22775;BME280;11554;51.106;3.684;2023-10-31T06:35:00;100088.47;;;8.41;100.0
22775;BME280;11554;51.106;3.684;2023-10-31T06:40:00;100099.31;;;8.45;100.0
22775;BME280;11554;51.106;3.684;2023-10-31T06:45:00;100096.59;;;8.48;100.0
22775;BME280;11554;51.106;3.684;2023-10-31T06:50:00;100108.39;;;8.53;100.0
22775;BME280;11554;51.106;3.684;2023-10-31T06:55:00;100109.17;;;8.58;100.0
22775;BME280;11554;51.106;3.684;2023-10-31T07:00:00;100109.34;;;8.64;100.0
22775;BME280;11554;51.106;3.684;2023-10-31T07:05:00;100117.21;;;8.67;100.0
22775;BME280;11554;51.106;3.684;2023-10-31T07:10:00;100123.58;;;8.71;100.0
22775;BME280;11554;51.106;3.684;2023-10-31T07:15:00;100132.09000000001;;;8.73;100.0
22775;BME280;11554;51.106;3.684;2023-10-31T07:20:00;100137.58;;;8.80;100.0
22775;BME280;11554;51.106;3.684;2023-10-31T07:25:00;100144.93;;;8.83;100.0
22775;BME280;11554;51.106;3.684;2023-10-31T07:30:00;100149.72;;;8.84;100.0
22775;BME280;11554;51.106;3.684;2023-10-31T07:35:00;100155.62;;;8.89;100.0
22775;BME280;11554;51.106;3.684;2023-10-31T07:40:00;100169.53;;;8.90;100.0
22775;BME280;11554;51.106;3.684;2023-10-31T07:45:00;100171.84;;;8.88;100.0
22775;BME280;11554;51.106;3.684;2023-10-31T07:50:00;100164.26;;;8.98;100.0
22775;BME280;11554;51.106;3.684;2023-10-31T07:55:00;100169.56999999999;;;9.02;100.0
22775;BME280;11554;51.106;3.684;2023-10-31T08:00:00;100174.25;;;9.15;100.0
22775;BME280;11554;51.106;3.684;2023-10-31T08:05:00;100180.62999999999;;;9.27;100.0
22775;BME280;11554;51.106;3.684;2023-10-31T08:10:00;100190.59;;;9.37;100.0
22775;BME280;11554;51.106;3.684;2023-10-31T08:15:00;100194.16;;;9.43;100.0
22775;BME280;11554;51.106;3.684;2023-10-31T08:20:00;100192.7;;;9.48;100.0
22775;BME280;11554;51.106;3.684;2023-10-31T08:25:00;100188.45999999999;;;9.48;100.0
22775;BME280;11554;51.106;3.684;2023-10-31T08:30:00;100185.36;;;9.73;100.0
22775;BME280;11554;51.106;3.684;2023-10-31T08:35:00;100183.2;;;9.90;100.0
22775;BME280;11554;51.106;3.684;2023-10-31T08:40:00;100187.56;;;9.85;100.0
22775;BME280;11554;51.106;3.684;2023-10-31T08:45:00;100191.71;;;9.99;100.0
22775;BME280;11554;51.106;3.684;2023-10-31T08:50:00;100194.61;;;9.93;100.0
22775;BME280;11554;51.106;3.684;2023-10-31T08:55:00;100206.3;;;10.05;100.0
22775;BME280;11554;51.106;3.684;2023-10-31T09:00:00;100211.1;;;10.11;100.0
22775;BME280;11554;51.106;3.684;2023-10-31T09:05:00;100212.23;;;10.37;100.0
22775;BME280;11554;51.106;3.684;2023-10-31T09:10:00;100215.83;;;10.45;100.0
22775;BME280;11554;51.106;3.684;2023-10-31T09:15:00;100225.87;;;10.50;100.0
22775;BME280;11554;51.106;3.684;2023-10-31T09:20:00;100233.79;;;10.62;100.0
22775;BME280;11554;51.106;3.684;2023-10-31T09:25:00;100231.89;;;10.76;100.0
22775;BME280;11554;51.106;3.684;2023-10-31T09:30:00;100240.12;;;10.87;100.0
22775;BME280;11554;51.106;3.684;2023-10-31T09:35:00;100240.66;;;10.96;100.0
22775;BME280;11554;51.106;3.684;2023-10-31T09:40:00;100244.28;;;10.72;100.0
22775;BME280;11554;51.106;3.684;2023-10-31T09:45:00;100241.54999999999;;;10.72;100.0
22775;BME280;11554;51.106;3.684;2023-10-31T09:50:00;100250.95;;;10.88;100.0
22775;BME280;11554;51.106;3.684;2023-10-31T09:55:00;100251.43000000001;;;10.95;100.0
22775;BME280;11554;51.106;3.684;2023-10-31T10:00:00;100258.69;;;11.09;100.0
22775;BME280;11554;51.106;3.684;2023-10-31T10:05:00;100257.0;;;11.08;100.0
22775;BME280;11554;51.106;3.684;2023-10-31T10:10:00;100253.43000000001;;;11.21;100.0
22775;BME280;11554;51.106;3.684;2023-10-31T10:15:00;100276.01;;;11.06;100.0
22775;BME280;11554;51.106;3.684;2023-10-31T10:20:08;100278.38;;;10.95;100.0
22775;BME280;11554;51.106;3.684;2023-10-31T10:25:00;100282.28;;;11.12;100.0
22775;BME280;11554;51.106;3.684;2023-10-31T10:30:00;100283.69;;;11.23;100.0
22775;BME280;11554;51.106;3.684;2023-10-31T10:35:00;100286.83;;;11.22;100.0
22775;BME280;11554;51.106;3.684;2023-10-31T10:40:00;100297.19;;;10.94;100.0
22775;BME280;11554;51.106;3.684;2023-10-31T10:45:02;100305.58;;;10.74;100.0
22775;BME280;11554;51.106;3.684;2023-10-31T10:50:00;100304.64;;;10.68;100.0
22775;BME280;11554;51.106;3.684;2023-10-31T10:55:01;100301.39;;;10.62;100.0
22775;BME280;11554;51.106;3.684;2023-10-31T11:00:02;100303.83;;;10.51;100.0
22775;BME280;11554;51.106;3.684;2023-10-31T11:05:00;100303.99;;;10.49;100.0
22775;BME280;11554;51.106;3.684;2023-10-31T11:10:00;100300.0;;;10.36;100.0
22775;BME280;11554;51.106;3.684;2023-10-31T11:15:01;100298.81;;;10.31;100.0
22775;BME280;11554;51.106;3.684;2023-10-31T11:20:00;100294.44;;;10.23;100.0
22775;BME280;11554;51.106;3.684;2023-10-31T11:25:00;100284.73;;;10.19;100.0
22775;BME280;11554;51.106;3.684;2023-10-31T11:30:00;100278.42000000001;;;10.14;100.0
22775;BME280;11554;51.106;3.684;2023-10-31T11:35:00;100274.45;;;10.17;100.0
22775;BME280;11554;51.106;3.684;2023-10-31T11:45:00;100268.25;;;10.41;100.0
22775;BME280;11554;51.106;3.684;2023-10-31T11:50:00;100272.97;;;10.66;100.0
22775;BME280;11554;51.106;3.684;2023-10-31T11:55:00;100280.47;;;10.86;100.0
22775;BME280;11554;51.106;3.684;2023-10-31T12:00:00;100277.87;;;10.98;100.0
22775;BME280;11554;51.106;3.684;2023-10-31T12:05:08;100278.3;;;11.13;100.0
22775;BME280;11554;51.106;3.684;2023-10-31T12:10:00;100273.08;;;11.50;100.0
22775;BME280;11554;51.106;3.684;2023-10-31T12:15:04;100281.8;;;11.71;100.0
22775;BME280;11554;51.106;3.684;2023-10-31T12:20:02;100292.03;;;11.93;100.0
22775;BME280;11554;51.106;3.684;2023-10-31T12:25:00;100295.58;;;11.84;100.0
22775;BME280;11554;51.106;3.684;2023-10-31T12:30:00;100303.45;;;11.80;100.0
22775;BME280;11554;51.106;3.684;2023-10-31T12:35:00;100302.48;;;11.79;100.0
22775;BME280;11554;51.106;3.684;2023-10-31T12:40:00;100311.63;;;11.80;100.0
22775;BME280;11554;51.106;3.684;2023-10-31T12:45:00;100316.41;;;11.72;100.0
22775;BME280;11554;51.106;3.684;2023-10-31T12:50:08;100319.48;;;11.70;100.0
22775;BME280;11554;51.106;3.684;2023-10-31T12:55:02;100321.93;;;11.70;100.0
22775;BME280;11554;51.106;3.684;2023-10-31T13:00:00;100325.78;;;11.77;100.0
22775;BME280;11554;51.106;3.684;2023-10-31T13:05:07;100332.78;;;11.87;100.0
22775;BME280;11554;51.106;3.684;2023-10-31T13:10:00;100326.03;;;12.11;100.0
22775;BME280;11554;51.106;3.684;2023-10-31T13:15:00;100331.39;;;12.59;100.0
22775;BME280;11554;51.106;3.684;2023-10-31T13:20:00;100326.23;;;12.80;100.0
22775;BME280;11554;51.106;3.684;2023-10-31T13:25:00;100322.03;;;13.08;100.0
22775;BME280;11554;51.106;3.684;2023-10-31T13:30:00;100323.49;;;13.37;100.0
22775;BME280;11554;51.106;3.684;2023-10-31T13:35:00;100325.04000000001;;;13.44;100.0
22775;BME280;11554;51.106;3.684;2023-10-31T13:40:00;100324.25;;;13.27;100.0
22775;BME280;11554;51.106;3.684;2023-10-31T13:45:00;100320.01000000001;;;13.06;100.0
22775;BME280;11554;51.106;3.684;2023-10-31T13:50:00;100317.71;;;12.99;100.0
22775;BME280;11554;51.106;3.684;2023-10-31T13:55:00;100324.17;;;12.97;100.0
22775;BME280;11554;51.106;3.684;2023-10-31T14:00:00;100322.02;;;12.81;100.0
22775;BME280;11554;51.106;3.684;2023-10-31T14:05:00;100319.48999999999;;;12.80;100.0
22775;BME280;11554;51.106;3.684;2023-10-31T14:10:00;100323.51999999999;;;12.90;100.0
22775;BME280;11554;51.106;3.684;2023-10-31T14:15:00;100314.26;;;12.79;100.0
22775;BME280;11554;51.106;3.684;2023-10-31T14:20:00;100314.78;;;12.83;100.0
22775;BME280;11554;51.106;3.684;2023-10-31T14:25:00;100306.9;;;12.82;100.0
22775;BME280;11554;51.106;3.684;2023-10-31T14:30:00;100316.92;;;12.65;100.0
22775;BME280;11554;51.106;3.684;2023-10-31T14:35:00;100318.08;;;12.67;100.0
22775;BME280;11554;51.106;3.684;2023-10-31T14:40:00;100313.56;;;12.64;100.0
22775;BME280;11554;51.106;3.684;2023-10-31T14:45:00;100307.83;;;12.43;100.0
22775;BME280;11554;51.106;3.684;2023-10-31T14:50:00;100313.4;;;12.17;100.0
22775;BME280;11554;51.106;3.684;2023-10-31T14:55:00;100307.48;;;12.06;100.0
22775;BME280;11554;51.106;3.684;2023-10-31T15:00:00;100302.26;;;11.92;100.0
22775;BME280;11554;51.106;3.684;2023-10-31T15:05:00;100307.82;;;11.88;100.0
22775;BME280;11554;51.106;3.684;2023-10-31T15:10:00;100308.75;;;11.98;100.0
22775;BME280;11554;51.106;3.684;2023-10-31T15:15:00;100311.63;;;12.07;100.0
22775;BME280;11554;51.106;3.684;2023-10-31T15:20:00;100312.19;;;12.07;100.0
22775;BME280;11554;51.106;3.684;2023-10-31T15:25:00;100314.15;;;12.08;100.0
22775;BME280;11554;51.106;3.684;2023-10-31T15:30:00;100307.56999999999;;;12.10;100.0
22775;BME280;11554;51.106;3.684;2023-10-31T15:35:00;100312.15999999999;;;12.12;100.0
22775;BME280;11554;51.106;3.684;2023-10-31T15:40:00;100321.39;;;12.11;100.0
22775;BME280;11554;51.106;3.684;2023-10-31T15:45:00;100327.56000000001;;;12.07;100.0
22775;BME280;11554;51.106;3.684;2023-10-31T15:50:00;100323.94;;;12.08;100.0
22775;BME280;11554;51.106;3.684;2023-10-31T15:55:00;100335.55;;;12.06;100.0
22775;BME280;11554;51.106;3.684;2023-10-31T16:00:00;100336.03;;;12.04;100.0
22775;BME280;11554;51.106;3.684;2023-10-31T16:05:00;100345.36;;;12.01;100.0
22775;BME280;11554;51.106;3.684;2023-10-31T16:10:00;100347.99;;;11.97;100.0
22775;BME280;11554;51.106;3.684;2023-10-31T16:15:00;100337.34;;;11.92;100.0
22775;BME280;11554;51.106;3.684;2023-10-31T16:20:00;100333.45000000001;;;11.87;100.0
22775;BME280;11554;51.106;3.684;2023-10-31T16:25:00;100340.7;;;11.81;100.0
22775;BME280;11554;51.106;3.684;2023-10-31T16:30:00;100348.55;;;11.75;100.0
22775;BME280;11554;51.106;3.684;2023-10-31T16:35:00;100349.39;;;11.69;100.0
22775;BME280;11554;51.106;3.684;2023-10-31T16:40:00;100353.97;;;11.61;100.0
22775;BME280;11554;51.106;3.684;2023-10-31T16:45:00;100353.77;;;11.54;100.0
22775;BME280;11554;51.106;3.684;2023-10-31T16:50:00;100360.53;;;11.47;100.0
22775;BME280;11554;51.106;3.684;2023-10-31T16:55:01;100360.96;;;11.45;100.0
22775;BME280;11554;51.106;3.684;2023-10-31T17:00:00;100369.08;;;11.48;100.0
22775;BME280;11554;51.106;3.684;2023-10-31T17:05:00;100376.14;;;11.41;100.0
22775;BME280;11554;51.106;3.684;2023-10-31T17:10:00;100376.87;;;11.31;100.0
22775;BME280;11554;51.106;3.684;2023-10-31T17:15:00;100384.3;;;11.28;100.0
22775;BME280;11554;51.106;3.684;2023-10-31T17:20:00;100385.79999999999;;;11.22;100.0
22775;BME280;11554;51.106;3.684;2023-10-31T17:25:00;100392.67;;;11.16;100.0
22775;BME280;11554;51.106;3.684;2023-10-31T17:30:00;100387.2;;;11.10;100.0
22775;BME280;11554;51.106;3.684;2023-10-31T17:35:00;100398.20999999999;;;11.06;100.0
22775;BME280;11554;51.106;3.684;2023-10-31T17:40:00;100404.1;;;10.99;100.0
22775;BME280;11554;51.106;3.684;2023-10-31T17:45:00;100413.78;;;10.97;100.0
22775;BME280;11554;51.106;3.684;2023-10-31T17:50:00;100408.86;;;10.98;100.0
22775;BME280;11554;51.106;3.684;2023-10-31T17:55:00;100417.13;;;10.99;100.0
22775;BME280;11554;51.106;3.684;2023-10-31T18:00:00;100422.67;;;10.93;100.0
22775;BME280;11554;51.106;3.684;2023-10-31T18:05:00;100425.79;;;10.87;100.0
22775;BME280;11554;51.106;3.684;2023-10-31T18:10:00;100428.2;;;10.84;100.0
22775;BME280;11554;51.106;3.684;2023-10-31T18:15:00;100427.86;;;10.85;100.0
22775;BME280;11554;51.106;3.684;2023-10-31T18:20:00;100424.45999999999;;;10.87;100.0
22775;BME280;11554;51.106;3.684;2023-10-31T18:25:00;100425.49;;;10.82;100.0
22775;BME280;11554;51.106;3.684;2023-10-31T18:30:00;100424.43;;;10.76;100.0
22775;BME280;11554;51.106;3.684;2023-10-31T18:35:00;100431.34;;;10.73;100.0
22775;BME280;11554;51.106;3.684;2023-10-31T18:40:00;100428.14;;;10.68;100.0
22775;BME280;11554;51.106;3.684;2023-10-31T18:45:00;100418.89;;;10.64;100.0
22775;BME280;11554;51.106;3.684;2023-10-31T18:50:00;100418.26999999999;;;10.62;100.0
22775;BME280;11554;51.106;3.684;2023-10-31T18:55:00;100418.87000000001;;;10.59;100.0
22775;BME280;11554;51.106;3.684;2023-10-31T19:00:00;100421.14;;;10.57;100.0
22775;BME280;11554;51.106;3.684;2023-10-31T19:05:00;100415.36;;;10.55;100.0
22775;BME280;11554;51.106;3.684;2023-10-31T19:10:00;100411.17;;;10.50;100.0
22775;BME280;11554;51.106;3.684;2023-10-31T19:15:00;100401.48000000001;;;10.48;100.0
22775;BME280;11554;51.106;3.684;2023-10-31T19:20:00;100400.36;;;10.46;100.0
22775;BME280;11554;51.106;3.684;2023-10-31T19:25:00;100402.25;;;10.44;100.0
22775;BME280;11554;51.106;3.684;2023-10-31T19:30:00;100415.23;;;10.42;100.0
22775;BME280;11554;51.106;3.684;2023-10-31T19:35:00;100413.56;;;10.49;100.0
22775;BME280;11554;51.106;3.684;2023-10-31T19:40:00;100419.64;;;10.56;100.0
22775;BME280;11554;51.106;3.684;2023-10-31T19:45:00;100411.19;;;10.60;100.0
22775;BME280;11554;51.106;3.684;2023-10-31T19:50:00;100410.74;;;10.63;100.0
22775;BME280;11554;51.106;3.684;2023-10-31T19:55:00;100411.73999999999;;;10.69;100.0
22775;BME280;11554;51.106;3.684;2023-10-31T20:00:00;100417.88;;;10.72;100.0
22775;BME280;11554;51.106;3.684;2023-10-31T20:05:00;100423.67;;;10.80;100.0
22775;BME280;11554;51.106;3.684;2023-10-31T20:10:00;100427.45999999999;;;10.84;100.0
22775;BME280;11554;51.106;3.684;2023-10-31T20:15:00;100427.98;;;10.94;100.0
22775;BME280;11554;51.106;3.684;2023-10-31T20:20:00;100435.33;;;10.97;100.0
22775;BME280;11554;51.106;3.684;2023-10-31T20:25:00;100439.34000000001;;;10.99;100.0
22775;BME280;11554;51.106;3.684;2023-10-31T20:30:00;100439.47;;;11.00;100.0
22775;BME280;11554;51.106;3.684;2023-10-31T20:35:00;100446.12;;;10.98;100.0
22775;BME280;11554;51.106;3.684;2023-10-31T20:40:00;100450.49;;;10.96;100.0
22775;BME280;11554;51.106;3.684;2023-10-31T20:45:00;100454.24;;;10.94;100.0
22775;BME280;11554;51.106;3.684;2023-10-31T20:50:00;100442.54;;;10.91;100.0
22775;BME280;11554;51.106;3.684;2023-10-31T20:55:00;100444.54;;;10.88;100.0
22775;BME280;11554;51.106;3.684;2023-10-31T21:00:00;100433.64;;;10.85;100.0
22775;BME280;11554;51.106;3.684;2023-10-31T21:05:00;100433.54000000001;;;10.85;100.0
22775;BME280;11554;51.106;3.684;2023-10-31T21:10:00;100423.42;;;10.85;100.0
22775;BME280;11554;51.106;3.684;2023-10-31T21:15:00;100419.44;;;10.85;100.0
22775;BME280;11554;51.106;3.684;2023-10-31T21:20:00;100416.89;;;10.86;100.0
22775;BME280;11554;51.106;3.684;2023-10-31T21:25:00;100420.34;;;10.88;100.0
22775;BME280;11554;51.106;3.684;2023-10-31T21:30:00;100422.99;;;10.89;100.0
22775;BME280;11554;51.106;3.684;2023-10-31T21:35:00;100416.6;;;10.90;100.0
22775;BME280;11554;51.106;3.684;2023-10-31T21:40:00;100426.4;;;10.89;100.0
22775;BME280;11554;51.106;3.684;2023-10-31T21:45:00;100425.09;;;10.90;100.0
22775;BME280;11554;51.106;3.684;2023-10-31T21:50:00;100417.64;;;10.87;100.0
22775;BME280;11554;51.106;3.684;2023-10-31T21:55:00;100411.6;;;10.85;100.0
22775;BME280;11554;51.106;3.684;2023-10-31T22:00:00;100404.01000000001;;;10.83;100.0
22775;BME280;11554;51.106;3.684;2023-10-31T22:05:00;100399.25;;;10.84;100.0
22775;BME280;11554;51.106;3.684;2023-10-31T22:10:00;100395.17;;;10.81;100.0
22775;BME280;11554;51.106;3.684;2023-10-31T22:15:00;100387.17;;;10.79;100.0
22775;BME280;11554;51.106;3.684;2023-10-31T22:20:00;100381.37000000001;;;10.78;100.0
22775;BME280;11554;51.106;3.684;2023-10-31T22:25:00;100378.8;;;10.78;100.0
22775;BME280;11554;51.106;3.684;2023-10-31T22:30:00;100375.64;;;10.79;100.0
22775;BME280;11554;51.106;3.684;2023-10-31T22:35:00;100375.34000000001;;;10.78;100.0
22775;BME280;11554;51.106;3.684;2023-10-31T22:40:00;100372.82;;;10.76;100.0
22775;BME280;11554;51.106;3.684;2023-10-31T22:45:00;100368.33;;;10.77;100.0
22775;BME280;11554;51.106;3.684;2023-10-31T22:50:00;100365.91;;;10.76;100.0
22775;BME280;11554;51.106;3.684;2023-10-31T22:55:00;100363.31;;;10.75;100.0
22775;BME280;11554;51.106;3.684;2023-10-31T23:00:00;100362.01999999999;;;10.74;100.0
22775;BME280;11554;51.106;3.684;2023-10-31T23:05:00;100353.97;;;10.72;100.0
22775;BME280;11554;51.106;3.684;2023-10-31T23:10:00;100352.03;;;10.69;100.0
22775;BME280;11554;51.106;3.684;2023-10-31T23:15:00;100343.75;;;10.67;100.0
22775;BME280;11554;51.106;3.684;2023-10-31T23:20:00;100338.2;;;10.65;100.0
22775;BME280;11554;51.106;3.684;2023-10-31T23:25:00;100332.23000000001;;;10.61;100.0
22775;BME280;11554;51.106;3.684;2023-10-31T23:30:00;100328.89;;;10.57;100.0
22775;BME280;11554;51.106;3.684;2023-10-31T23:35:00;100324.14;;;10.53;100.0
22775;BME280;11554;51.106;3.684;2023-10-31T23:40:00;100315.45;;;10.49;100.0
22775;BME280;11554;51.106;3.684;2023-10-31T23:45:00;100309.77;;;10.46;100.0
22775;BME280;11554;51.106;3.684;2023-10-31T23:50:00;100299.59;;;10.44;100.0
22775;BME280;11554;51.106;3.684;2023-10-31T23:55:00;100294.92;;;10.43;100.0
